Time;durP1;ratioP1;P1;durP2;ratioP2;P2;SDS_P1;SDS_P2;PMS_P1;PMS_P2;Temp;Humidity;BMP_temperature;BMP_pressure;BME280_temperature;BME280_humidity;BME280_pressure;Samples;Min_cycle;Max_cycle;Signal;HPM_P1;HPM_P2
2021/12/19 00:01:28;;;;;;;4.70;1.50;;;22.90;56.50;;;;;;214244;1309;26042;-50
2021/12/19 00:12:14;;;;;;;3.90;1.70;;;22.90;56.40;;;;;;214254;1309;22588;-51
2021/12/19 00:17:30;;;;;;;3.30;1.60;;;22.90;56.10;;;;;;214311;1309;23049;-54
2021/12/19 00:22:40;;;;;;;2.90;1.30;;;22.90;56.10;;;;;;214450;1309;24248;-54
2021/12/19 00:28:00;;;;;;;2.90;1.60;;;22.90;56.10;;;;;;214156;1309;22559;-52
2021/12/19 00:33:22;;;;;;;4.70;1.30;;;22.90;56.20;;;;;;214157;1309;25237;-52
2021/12/19 00:38:33;;;;;;;3.40;1.70;;;22.90;56.00;;;;;;214271;1309;22720;-53
2021/12/19 00:49:04;;;;;;;2.50;1.20;;;23.20;55.30;;;;;;213880;1312;22569;-52
2021/12/19 00:54:12;;;;;;;3.60;1.40;;;23.30;55.20;;;;;;214183;1309;22651;-51
2021/12/19 00:59:37;;;;;;;5.10;2.10;;;23.20;55.50;;;;;;214265;1309;24302;-54
2021/12/19 01:04:48;;;;;;;3.20;1.50;;;23.20;55.00;;;;;;210176;1312;5305587;-51
2021/12/19 01:10:03;;;;;;;3.60;1.50;;;23.20;54.90;;;;;;213862;1312;22714;-51
2021/12/19 01:15:14;;;;;;;3.30;1.60;;;23.20;54.70;;;;;;214301;1312;25772;-52
2021/12/19 01:20:36;;;;;;;4.80;1.60;;;23.20;54.60;;;;;;214190;1310;22679;-53
2021/12/19 01:25:43;;;;;;;4.40;1.70;;;23.20;54.50;;;;;;214240;1314;25258;-54
2021/12/19 01:30:52;;;;;;;2.70;1.40;;;23.20;54.50;;;;;;213985;1312;22588;-54
2021/12/19 01:36:04;;;;;;;2.70;1.20;;;23.20;54.30;;;;;;213673;1311;22581;-52
2021/12/19 01:41:11;;;;;;;3.10;1.60;;;23.20;54.80;;;;;;214315;1309;22589;-53
2021/12/19 01:46:15;;;;;;;2.70;1.50;;;23.20;54.20;;;;;;214296;1309;22786;-53
2021/12/19 01:51:23;;;;;;;4.40;1.80;;;23.20;54.10;;;;;;214092;1312;25410;-52
2021/12/19 01:56:28;;;;;;;3.10;1.40;;;23.30;54.30;;;;;;214135;1312;24264;-52
2021/12/19 02:01:46;;;;;;;2.20;1.40;;;23.30;53.90;;;;;;214210;1309;22604;-52
2021/12/19 02:06:50;;;;;;;1.90;1.10;;;23.30;53.70;;;;;;214095;1311;22593;-56
2021/12/19 02:11:54;;;;;;;3.10;1.40;;;23.30;53.70;;;;;;214294;1312;22608;-54
2021/12/19 02:16:58;;;;;;;2.80;1.30;;;23.30;53.70;;;;;;214186;1312;22558;-50
2021/12/19 02:22:01;;;;;;;2.90;1.50;;;23.30;53.70;;;;;;214516;1309;22570;-52
2021/12/19 02:27:05;;;;;;;2.90;1.60;;;23.20;53.60;;;;;;214204;1309;22551;-52
2021/12/19 02:32:09;;;;;;;3.30;1.40;;;23.20;53.80;;;;;;214151;1309;25555;-50
2021/12/19 02:37:45;;;;;;;4.50;1.30;;;23.20;53.80;;;;;;214149;1312;22614;-53
2021/12/19 02:48:14;;;;;;;2.50;1.20;;;23.20;53.80;;;;;;213979;1316;22572;-51
2021/12/19 02:53:28;;;;;;;2.30;1.40;;;23.20;53.70;;;;;;213967;1312;22597;-50
2021/12/19 02:58:34;;;;;;;2.40;1.30;;;23.20;53.60;;;;;;213555;1311;22639;-52
2021/12/19 03:03:37;;;;;;;3.10;1.40;;;23.20;53.80;;;;;;214082;1316;24291;-52
2021/12/19 03:08:45;;;;;;;2.60;1.50;;;23.20;53.50;;;;;;214088;1316;26543;-53
2021/12/19 03:19:12;;;;;;;2.10;1.20;;;23.20;53.50;;;;;;213351;1315;25369;-50
2021/12/19 03:24:16;;;;;;;2.80;1.60;;;23.20;53.70;;;;;;213854;1317;24410;-55
2021/12/19 03:29:25;;;;;;;2.60;1.10;;;23.20;53.50;;;;;;214105;1312;22653;-51
2021/12/19 03:34:29;;;;;;;2.70;1.10;;;23.20;53.60;;;;;;214141;1312;22562;-54
2021/12/19 03:39:37;;;;;;;2.30;1.20;;;23.20;53.50;;;;;;214155;1312;23263;-50
2021/12/19 03:44:41;;;;;;;3.50;1.20;;;23.20;53.70;;;;;;213631;1312;25280;-51
2021/12/19 03:49:46;;;;;;;2.40;1.10;;;23.10;53.70;;;;;;213846;1312;22562;-52
2021/12/19 03:54:50;;;;;;;2.30;1.10;;;23.10;53.60;;;;;;214220;1309;24277;-51
2021/12/19 03:59:53;;;;;;;2.90;1.30;;;23.10;53.50;;;;;;214110;1309;22574;-51
2021/12/19 04:04:59;;;;;;;2.40;1.30;;;23.10;53.60;;;;;;214110;1314;22569;-51
2021/12/19 04:10:03;;;;;;;2.50;1.20;;;23.10;53.50;;;;;;213889;1309;23223;-54
2021/12/19 04:15:07;;;;;;;3.90;1.30;;;23.10;53.30;;;;;;214219;1316;26633;-51
2021/12/19 04:20:15;;;;;;;2.60;1.10;;;23.10;53.30;;;;;;214291;1315;22578;-51
2021/12/19 04:25:19;;;;;;;1.90;1.20;;;23.20;53.50;;;;;;213684;1312;25262;-51
2021/12/19 04:30:25;;;;;;;2.20;1.40;;;23.20;53.30;;;;;;213605;1311;25384;-54
2021/12/19 04:35:33;;;;;;;1.90;1.10;;;23.20;54.00;;;;;;213635;1318;24362;-51
2021/12/19 04:40:52;;;;;;;2.50;1.30;;;23.20;53.40;;;;;;214213;1312;26616;-50
2021/12/19 04:51:54;;;;;;;2.00;1.10;;;23.10;53.50;;;;;;214337;1309;24377;-49
2021/12/19 05:02:14;;;;;;;1.70;1.00;;;23.10;53.50;;;;;;214454;1315;22587;-51
2021/12/19 05:18:09;;;;;;;2.50;1.40;;;23.10;53.50;;;;;;214626;1314;23030;-52
2021/12/19 05:23:23;;;;;;;3.20;1.40;;;23.20;53.50;;;;;;214441;1314;25484;-54
2021/12/19 05:28:27;;;;;;;2.50;1.20;;;23.20;54.10;;;;;;214311;1315;23930;-55
2021/12/19 05:33:31;;;;;;;2.50;1.10;;;23.10;53.60;;;;;;214316;1309;22590;-55
2021/12/19 05:49:19;;;;;;;2.10;1.00;;;23.10;53.40;;;;;;213566;1316;23347;-50
2021/12/19 05:54:23;;;;;;;1.80;1.10;;;23.10;53.60;;;;;;214202;1316;24304;-51
2021/12/19 05:59:27;;;;;;;3.20;1.20;;;23.00;53.70;;;;;;214257;1312;24335;-51
2021/12/19 06:04:30;;;;;;;1.80;1.20;;;23.10;53.40;;;;;;214093;1315;24274;-54
2021/12/19 06:09:34;;;;;;;2.60;1.30;;;23.10;53.70;;;;;;214022;1312;22569;-51
2021/12/19 06:14:38;;;;;;;2.80;1.10;;;23.10;53.30;;;;;;214154;1312;22719;-53
2021/12/19 06:19:41;;;;;;;1.90;1.10;;;23.10;53.90;;;;;;213614;1316;24321;-56
2021/12/19 06:24:45;;;;;;;2.70;1.00;;;23.00;53.30;;;;;;214201;1310;22596;-52
2021/12/19 06:29:49;;;;;;;2.50;1.40;;;23.00;53.10;;;;;;214135;1310;25437;-51
2021/12/19 06:34:53;;;;;;;2.10;1.00;;;23.00;53.30;;;;;;214404;1315;22575;-51
2021/12/19 06:39:56;;;;;;;2.10;1.00;;;23.00;53.00;;;;;;213744;1316;22593;-51
2021/12/19 06:45:01;;;;;;;3.20;1.20;;;23.10;53.40;;;;;;214333;1314;22660;-51
2021/12/19 06:50:06;;;;;;;4.00;0.90;;;23.10;53.60;;;;;;214233;1315;22616;-50
2021/12/19 06:55:11;;;;;;;2.10;1.10;;;23.10;53.30;;;;;;214242;1315;24410;-54
2021/12/19 07:00:20;;;;;;;2.70;1.20;;;23.00;53.70;;;;;;214024;1318;25477;-51
2021/12/19 07:05:23;;;;;;;1.80;1.10;;;23.10;53.60;;;;;;214058;1316;24239;-52
2021/12/19 07:10:27;;;;;;;1.90;1.20;;;23.00;53.20;;;;;;214223;1314;24337;-53
2021/12/19 07:15:30;;;;;;;2.50;1.20;;;23.00;53.80;;;;;;214056;1313;22752;-53
2021/12/19 07:20:42;;;;;;;1.90;1.00;;;23.00;53.50;;;;;;214166;1309;22865;-54
2021/12/19 07:25:46;;;;;;;2.50;1.20;;;23.00;53.80;;;;;;213949;1313;22651;-55
2021/12/19 07:30:50;;;;;;;2.90;1.00;;;23.10;53.30;;;;;;214090;1313;22661;-50
2021/12/19 07:35:55;;;;;;;2.90;1.20;;;23.10;53.50;;;;;;214125;1315;22593;-52
2021/12/19 07:40:59;;;;;;;2.40;1.10;;;23.10;53.20;;;;;;214094;1309;24248;-52
2021/12/19 07:46:03;;;;;;;1.90;1.20;;;23.10;53.10;;;;;;214084;1312;25590;-51
2021/12/19 07:51:07;;;;;;;6.40;1.00;;;23.10;53.30;;;;;;213865;1312;22630;-50
2021/12/19 07:56:19;;;;;;;3.20;1.10;;;23.00;53.40;;;;;;214257;1310;25586;-51
2021/12/19 08:01:25;;;;;;;1.80;0.90;;;23.10;53.50;;;;;;213695;1313;24008;-54
2021/12/19 08:06:28;;;;;;;3.30;1.20;;;23.00;53.40;;;;;;214036;1310;22600;-55
2021/12/19 08:11:42;;;;;;;3.70;1.10;;;23.00;53.80;;;;;;214372;1312;24313;-53
2021/12/19 08:16:46;;;;;;;3.40;1.20;;;23.00;53.70;;;;;;213544;1312;22561;-54
2021/12/19 08:21:53;;;;;;;1.70;0.90;;;23.00;53.70;;;;;;213918;1309;22613;-55
2021/12/19 08:26:56;;;;;;;3.60;1.20;;;23.00;53.90;;;;;;213552;1312;24278;-51
2021/12/19 08:32:00;;;;;;;1.90;0.90;;;23.00;54.00;;;;;;213823;1312;22795;-53
2021/12/19 08:37:04;;;;;;;2.00;1.10;;;23.00;54.10;;;;;;213621;1312;23108;-51
2021/12/19 08:42:11;;;;;;;2.90;1.30;;;23.00;53.90;;;;;;213662;1311;22643;-51
2021/12/19 08:47:15;;;;;;;3.80;1.30;;;23.00;54.00;;;;;;213851;1309;22597;-55
2021/12/19 08:52:20;;;;;;;2.80;1.20;;;22.90;54.10;;;;;;214396;1312;24431;-52
2021/12/19 08:57:27;;;;;;;2.00;1.00;;;22.90;54.00;;;;;;213660;1312;25239;-53
2021/12/19 09:02:30;;;;;;;1.50;0.90;;;23.00;53.80;;;;;;213993;1309;24418;-53
2021/12/19 09:07:36;;;;;;;2.50;1.20;;;23.00;53.70;;;;;;213716;1312;23249;-54
2021/12/19 09:12:45;;;;;;;1.70;0.90;;;23.00;53.70;;;;;;213855;1312;22581;-53
2021/12/19 09:17:49;;;;;;;1.90;1.00;;;23.00;53.60;;;;;;213807;1312;24306;-52
2021/12/19 09:22:53;;;;;;;3.20;1.00;;;23.00;54.00;;;;;;213912;1312;24404;-52
2021/12/19 09:27:56;;;;;;;3.00;1.00;;;23.00;53.50;;;;;;214080;1312;22585;-51
2021/12/19 09:33:05;;;;;;;2.80;1.00;;;23.00;53.30;;;;;;213951;1312;22656;-51
2021/12/19 09:38:09;;;;;;;2.60;1.20;;;23.00;53.40;;;;;;213725;1309;25256;-52
2021/12/19 09:48:45;;;;;;;1.90;0.90;;;23.10;53.20;;;;;;213919;1312;22655;-51
2021/12/19 09:53:50;;;;;;;1.30;0.90;;;23.10;53.00;;;;;;213904;1312;24422;-53
2021/12/19 09:58:54;;;;;;;3.30;1.50;;;23.00;53.40;;;;;;213368;1311;24302;-52
2021/12/19 10:03:58;;;;;;;3.20;1.00;;;23.10;53.20;;;;;;213924;1312;24425;-51
2021/12/19 10:09:11;;;;;;;4.80;1.10;;;23.00;53.90;;;;;;214139;1309;24248;-52
2021/12/19 10:14:27;;;;;;;4.40;1.00;;;23.00;53.70;;;;;;214262;1314;24094;-51
2021/12/19 10:19:42;;;;;;;3.10;0.90;;;23.20;53.60;;;;;;214923;1309;22662;-54
2021/12/19 10:24:46;;;;;;;9.20;2.40;;;23.10;53.30;;;;;;214234;1309;22661;-50
2021/12/19 10:29:55;;;;;;;8.10;3.80;;;23.10;52.40;;;;;;214270;1309;22785;-51
2021/12/19 10:35:17;;;;;;;8.60;3.80;;;23.20;53.10;;;;;;214130;1313;25532;-50
2021/12/19 10:40:21;;;;;;;8.80;2.90;;;23.10;52.90;;;;;;214202;1312;22589;-54
2021/12/19 10:45:46;;;;;;;8.30;4.00;;;23.00;53.20;;;;;;214175;1312;22587;-50
2021/12/19 10:50:55;;;;;;;7.40;3.50;;;23.10;53.00;;;;;;214577;1309;22566;-50
2021/12/19 10:56:02;;;;;;;9.50;3.50;;;23.10;52.90;;;;;;214272;1312;25352;-53
2021/12/19 11:01:14;;;;;;;5.60;3.00;;;23.00;53.10;;;;;;214271;1309;23103;-51
2021/12/19 11:06:20;;;;;;;5.60;3.10;;;23.10;52.90;;;;;;213763;1311;22595;-55
2021/12/19 11:11:35;;;;;;;9.20;2.90;;;23.00;52.80;;;;;;214145;1313;25474;-51
2021/12/19 11:16:43;;;;;;;7.90;2.70;;;23.10;52.50;;;;;;214297;1309;25413;-52
2021/12/19 11:21:54;;;;;;;7.70;2.70;;;23.10;53.00;;;;;;214295;1312;24353;-53
2021/12/19 11:27:05;;;;;;;;;;;23.20;52.60;;;;;;214497;1309;22651;-54
2021/12/19 11:32:19;;;;;;;7.10;2.80;;;23.20;52.20;;;;;;214186;1310;25397;-53
2021/12/19 11:37:26;;;;;;;7.60;2.40;;;23.30;52.00;;;;;;213799;1311;22574;-52
2021/12/19 11:42:35;;;;;;;9.70;3.00;;;23.30;51.90;;;;;;214095;1312;25401;-50
2021/12/19 11:47:49;;;;;;;8.70;2.90;;;23.30;52.20;;;;;;214911;1314;25428;-54
2021/12/19 11:53:25;;;;;;;7.50;2.60;;;23.30;52.50;;;;;;214254;1309;26543;-51
2021/12/19 11:58:38;;;;;;;12.60;3.90;;;23.30;52.80;;;;;;214123;1312;22599;-50
2021/12/19 12:03:43;;;;;;;14.20;3.10;;;23.40;51.70;;;;;;214355;1312;25454;-50
2021/12/19 12:09:12;;;;;;;9.50;3.00;;;23.20;52.20;;;;;;214154;1309;22581;-51
2021/12/19 12:14:22;;;;;;;9.10;3.60;;;23.10;52.00;;;;;;214085;1309;22584;-53
2021/12/19 12:19:42;;;;;;;15.80;3.80;;;22.90;52.10;;;;;;215553;1309;24373;-50
2021/12/19 12:25:32;;;;;;;10.70;3.60;;;23.00;51.70;;;;;;214209;1309;23388;-50
2021/12/19 12:30:50;;;;;;;9.80;3.50;;;23.00;51.70;;;;;;214332;1312;24316;-51
2021/12/19 12:36:00;;;;;;;8.80;3.70;;;23.10;51.40;;;;;;213678;1312;26549;-51
2021/12/19 12:41:10;;;;;;;9.50;3.40;;;22.90;50.80;;;;;;213575;1312;22549;-51
2021/12/19 12:46:23;;;;;;;8.60;3.10;;;23.00;51.20;;;;;;214245;1313;24487;-51
2021/12/19 12:51:48;;;;;;;12.10;4.40;;;22.90;51.00;;;;;;214221;1313;25502;-51
2021/12/19 12:56:58;;;;;;;13.10;4.60;;;23.00;51.00;;;;;;214681;1309;22716;-50
2021/12/19 13:02:29;;;;;;;11.70;4.30;;;23.00;52.20;;;;;;214294;1309;22577;-52
2021/12/19 13:07:33;;;;;;;9.30;3.60;;;23.00;52.40;;;;;;213812;1311;25384;-52
2021/12/19 13:12:39;;;;;;;10.80;4.10;;;23.00;52.50;;;;;;214205;1311;22658;-53
2021/12/19 13:17:53;;;;;;;11.70;4.00;;;22.90;52.20;;;;;;214642;1314;23000;-51
2021/12/19 13:23:03;;;;;;;9.50;3.40;;;22.90;52.00;;;;;;214075;1309;22565;-52
2021/12/19 13:28:20;;;;;;;10.90;3.60;;;22.90;51.60;;;;;;213761;1312;26507;-50
2021/12/19 13:33:42;;;;;;;7.20;3.40;;;23.00;51.20;;;;;;214237;1309;22644;-50
2021/12/19 13:38:49;;;;;;;9.70;3.50;;;23.00;51.50;;;;;;214372;1312;25317;-56
2021/12/19 13:43:57;;;;;;;10.00;4.00;;;23.10;51.30;;;;;;213907;1312;24459;-55
2021/12/19 13:49:08;;;;;;;9.50;3.00;;;23.00;51.30;;;;;;214274;1312;22767;-55
2021/12/19 13:54:44;;;;;;;11.50;3.80;;;23.00;51.30;;;;;;214272;1312;22616;-52
2021/12/19 13:59:53;;;;;;;11.40;3.40;;;23.10;51.70;;;;;;214203;1309;22639;-53
2021/12/19 14:04:58;;;;;;;9.00;2.90;;;23.00;52.50;;;;;;214099;1312;25563;-51
2021/12/19 14:10:20;;;;;;;8.50;2.50;;;23.10;52.60;;;;;;213948;1309;22582;-54
2021/12/19 14:15:33;;;;;;;13.10;3.20;;;23.10;52.00;;;;;;213210;1311;24355;-51
2021/12/19 14:20:37;;;;;;;7.60;2.90;;;23.10;51.70;;;;;;213926;1312;24326;-56
2021/12/19 14:25:46;;;;;;;10.40;3.30;;;23.10;51.40;;;;;;213960;1309;22605;-55
2021/12/19 14:31:02;;;;;;;5.80;2.40;;;23.20;51.10;;;;;;214217;1312;22565;-56
2021/12/19 14:36:09;;;;;;;9.20;2.50;;;23.20;51.10;;;;;;214154;1310;25268;-52
2021/12/19 14:41:15;;;;;;;7.90;2.20;;;23.20;51.30;;;;;;214182;1312;25322;-52
2021/12/19 14:46:26;;;;;;;7.30;2.00;;;23.00;51.30;;;;;;214227;1312;22977;-52
2021/12/19 14:51:32;;;;;;;7.50;2.30;;;23.00;51.80;;;;;;214391;1309;22774;-53
2021/12/19 14:56:47;;;;;;;8.60;1.90;;;23.00;51.70;;;;;;214174;1312;22638;-53
2021/12/19 15:01:57;;;;;;;5.40;1.60;;;23.10;52.10;;;;;;213788;1311;24803;-55
2021/12/19 15:07:45;;;;;;;6.60;2.00;;;23.10;51.70;;;;;;214126;1309;25374;-54
2021/12/19 15:13:06;;;;;;;6.20;1.60;;;23.20;51.50;;;;;;214288;1309;22590;-51
2021/12/19 15:18:13;;;;;;;12.30;2.00;;;23.00;51.70;;;;;;213992;1309;25302;-52
2021/12/19 15:23:23;;;;;;;5.00;1.70;;;23.30;52.40;;;;;;214219;1309;22794;-54
2021/12/19 15:28:30;;;;;;;6.80;2.10;;;23.40;51.00;;;;;;214352;1309;25544;-57
2021/12/19 15:33:42;;;;;;;6.60;1.60;;;23.60;52.30;;;;;;214200;1309;22623;-55
2021/12/19 15:39:12;;;;;;;5.30;1.70;;;23.50;51.30;;;;;;214322;1309;25394;-54
2021/12/19 15:44:31;;;;;;;5.90;1.80;;;23.10;52.20;;;;;;214146;1309;25502;-55
2021/12/19 15:50:00;;;;;;;5.50;1.50;;;22.90;53.10;;;;;;214377;1309;22577;-54
2021/12/19 15:55:12;;;;;;;7.50;1.60;;;22.80;53.00;;;;;;214135;1309;26552;-55
2021/12/19 16:00:22;;;;;;;3.70;1.50;;;22.70;53.20;;;;;;214055;1309;22633;-53
2021/12/19 16:05:58;;;;;;;3.80;1.50;;;22.70;54.30;;;;;;214353;1309;24280;-55
2021/12/19 16:11:33;;;;;;;6.30;1.10;;;22.60;53.90;;;;;;214425;1309;22620;-54
2021/12/19 16:17:18;;;;;;;4.10;1.30;;;22.50;54.20;;;;;;214242;1309;22617;-52
2021/12/19 16:22:35;;;;;;;7.10;1.00;;;22.30;54.20;;;;;;213458;1312;22582;-53
2021/12/19 16:27:42;;;;;;;2.80;1.10;;;22.20;54.30;;;;;;214304;1309;22709;-54
2021/12/19 16:32:54;;;;;;;2.30;1.20;;;22.20;54.10;;;;;;214479;1309;24280;-55
2021/12/19 16:38:09;;;;;;;2.70;1.10;;;22.20;54.20;;;;;;214052;1312;25281;-53
2021/12/19 16:43:32;;;;;;;2.70;1.10;;;22.20;53.80;;;;;;214412;1310;22577;-54
2021/12/19 16:48:46;;;;;;;3.60;1.20;;;22.20;53.20;;;;;;214049;1310;22575;-54
2021/12/19 16:53:51;;;;;;;4.10;1.10;;;22.10;52.50;;;;;;214486;1309;25467;-55
2021/12/19 16:58:56;;;;;;;5.10;1.10;;;22.00;52.60;;;;;;213722;1309;26647;-54
2021/12/19 17:04:03;;;;;;;2.70;1.00;;;22.00;52.80;;;;;;213886;1309;310345;-55
2021/12/19 17:09:28;;;;;;;2.80;1.10;;;21.90;52.90;;;;;;214092;1309;24261;-55
2021/12/19 17:14:36;;;;;;;11.00;1.30;;;21.90;53.10;;;;;;213884;1310;22579;-55
2021/12/19 17:19:51;;;;;;;3.80;1.20;;;22.00;53.30;;;;;;213930;1309;22644;-53
2021/12/19 17:24:57;;;;;;;3.70;0.90;;;21.90;53.30;;;;;;213502;1311;22595;-52
2021/12/19 17:30:04;;;;;;;2.80;1.30;;;21.90;53.80;;;;;;214279;1312;22561;-55
2021/12/19 17:35:10;;;;;;;4.70;1.00;;;21.80;54.60;;;;;;213603;1309;25268;-56
2021/12/19 17:45:45;;;;;;;2.90;1.10;;;21.90;56.60;;;;;;213138;1311;22651;-54
2021/12/19 17:50:52;;;;;;;5.90;1.70;;;21.90;57.10;;;;;;214104;1309;22574;-55
2021/12/19 17:55:57;;;;;;;5.00;1.30;;;21.80;57.20;;;;;;213933;1309;22623;-52
2021/12/19 18:01:09;;;;;;;2.80;0.80;;;22.00;57.50;;;;;;214116;1312;22570;-56
2021/12/19 18:06:21;;;;;;;3.60;1.00;;;22.00;57.50;;;;;;213698;1312;25888;-55
2021/12/19 18:11:26;;;;;;;;;;;21.90;57.30;;;;;;214224;1312;26875;-53
2021/12/19 18:16:33;;;;;;;2.80;1.10;;;21.90;57.80;;;;;;214101;1312;24281;-56
2021/12/19 18:21:39;;;;;;;2.40;1.00;;;21.90;56.80;;;;;;214094;1312;25470;-57
2021/12/19 18:26:44;;;;;;;6.10;1.40;;;22.00;57.60;;;;;;214129;1312;22564;-54
2021/12/19 18:31:56;;;;;;;3.20;0.90;;;22.00;55.90;;;;;;214289;1309;24302;-53
2021/12/19 18:37:10;;;;;;;4.20;1.00;;;21.80;56.00;;;;;;214212;1309;22551;-53
2021/12/19 18:42:23;;;;;;;6.90;1.00;;;21.80;56.30;;;;;;213806;1312;22576;-55
2021/12/19 18:48:39;;;;;;;;;;;;;;;;;;;;;
2021/12/19 18:58:27;;;;;;;2.50;0.90;;;21.80;56.00;;;;;;214228;1309;22626;-53
2021/12/19 19:08:37;;;;;;;1.70;1.00;;;21.80;56.00;;;;;;214029;1312;23565;-52
2021/12/19 19:13:40;;;;;;;2.60;1.00;;;21.80;55.60;;;;;;213943;1309;22668;-56
2021/12/19 19:18:45;;;;;;;2.90;1.00;;;21.80;56.00;;;;;;213904;1311;22571;-52
2021/12/19 19:23:49;;;;;;;2.80;0.90;;;21.80;56.00;;;;;;214065;1309;24257;-54
2021/12/19 19:28:56;;;;;;;2.60;1.00;;;21.90;55.30;;;;;;214327;1309;23848;-52
2021/12/19 19:34:05;;;;;;;3.30;1.10;;;21.80;55.30;;;;;;214515;1309;24342;-55
2021/12/19 19:50:05;;;;;;;4.40;1.50;;;21.80;57.10;;;;;;213846;1309;25237;-56
2021/12/19 19:55:14;;;;;;;6.30;1.30;;;21.70;56.80;;;;;;214094;1309;22593;-55
2021/12/19 20:00:21;;;;;;;3.60;1.30;;;21.70;56.70;;;;;;214394;1309;25379;-54
2021/12/19 20:05:29;;;;;;;6.40;1.40;;;21.60;57.00;;;;;;214126;1312;26591;-55
2021/12/19 20:10:34;;;;;;;2.90;1.30;;;21.50;56.60;;;;;;214229;1312;25258;-54
2021/12/19 20:15:38;;;;;;;5.10;1.50;;;21.70;57.30;;;;;;214107;1312;25344;-54
2021/12/19 20:20:49;;;;;;;4.20;1.40;;;21.90;56.20;;;;;;214033;1309;22597;-54
2021/12/19 20:26:14;;;;;;;5.00;1.50;;;22.10;55.40;;;;;;214136;1309;22558;-56
2021/12/19 20:31:19;;;;;;;4.30;1.60;;;22.20;54.70;;;;;;213558;1312;24135;-56
2021/12/19 20:36:24;;;;;;;11.40;1.80;;;22.20;55.00;;;;;;214259;1309;22580;-51
2021/12/19 20:41:29;;;;;;;8.00;1.40;;;22.20;55.20;;;;;;214082;1312;25519;-55
2021/12/19 20:46:36;;;;;;;7.00;1.80;;;22.30;55.20;;;;;;213710;1312;22569;-53
2021/12/19 20:51:46;;;;;;;7.60;1.80;;;22.50;56.10;;;;;;214086;1309;22609;-52
2021/12/19 20:56:53;;;;;;;5.20;1.40;;;22.70;57.10;;;;;;214042;1312;23960;-55
2021/12/19 21:02:02;;;;;;;6.10;1.60;;;22.60;56.40;;;;;;214136;1310;23011;-53
2021/12/19 21:07:11;;;;;;;10.00;1.80;;;22.60;57.00;;;;;;214146;1309;22656;-52
2021/12/19 21:12:27;;;;;;;6.90;1.80;;;22.70;57.50;;;;;;214263;1309;24274;-57
2021/12/19 21:23:01;;;;;;;5.50;1.60;;;22.50;58.00;;;;;;213866;1312;25370;-55
2021/12/19 21:28:06;;;;;;;8.60;3.10;;;22.60;59.00;;;;;;213091;1309;22602;-53
2021/12/19 21:33:14;;;;;;;8.70;2.00;;;22.50;59.30;;;;;;213672;1309;25431;-53
2021/12/19 21:43:41;;;;;;;2.60;1.20;;;22.90;57.70;;;;;;214161;1309;22838;-53
2021/12/19 21:48:49;;;;;;;3.40;1.30;;;22.70;58.40;;;;;;213219;1310;22687;-52
2021/12/19 21:54:10;;;;;;;4.90;1.10;;;22.60;58.30;;;;;;213753;1312;22648;-52
2021/12/19 22:00:06;;;;;;;2.90;1.20;;;22.50;58.50;;;;;;213649;1309;25441;-53
2021/12/19 22:05:16;;;;;;;2.90;1.30;;;22.50;58.80;;;;;;218539;1309;22688;-52
2021/12/19 22:10:20;;;;;;;4.10;1.20;;;22.40;59.00;;;;;;213864;1309;23136;-51
2021/12/19 22:15:28;;;;;;;6.30;1.30;;;22.30;58.70;;;;;;213600;1309;27600;-53
2021/12/19 22:20:33;;;;;;;2.70;1.20;;;22.30;59.40;;;;;;214291;1309;22619;-54
2021/12/19 22:25:38;;;;;;;2.00;0.90;;;22.20;58.60;;;;;;214318;1314;23084;-55
2021/12/19 22:30:46;;;;;;;3.20;1.00;;;22.20;58.60;;;;;;213601;1312;22565;-56
2021/12/19 22:35:51;;;;;;;2.20;0.90;;;22.20;58.60;;;;;;214294;1314;25245;-54
2021/12/19 22:40:56;;;;;;;1.40;0.70;;;22.10;58.70;;;;;;214241;1310;24308;-54
2021/12/19 22:46:00;;;;;;;1.60;0.80;;;22.00;58.70;;;;;;214387;1309;25399;-52
2021/12/19 22:51:06;;;;;;;1.80;0.90;;;22.00;59.10;;;;;;214234;1309;22602;-52
2021/12/19 22:56:09;;;;;;;2.50;0.80;;;21.90;58.80;;;;;;214171;1309;22570;-53
2021/12/19 23:01:15;;;;;;;1.40;0.80;;;22.00;58.90;;;;;;214066;1309;22613;-53
2021/12/19 23:06:20;;;;;;;2.00;0.70;;;21.90;59.00;;;;;;214013;1309;24253;-56
2021/12/19 23:11:23;;;;;;;2.60;1.00;;;21.90;59.30;;;;;;214158;1314;22583;-55
2021/12/19 23:16:52;;;;;;;3.30;1.00;;;21.90;58.90;;;;;;214057;1309;25588;-52
2021/12/19 23:21:56;;;;;;;1.80;0.80;;;21.80;59.20;;;;;;214092;1309;22989;-52
2021/12/19 23:26:59;;;;;;;2.20;0.80;;;21.80;59.00;;;;;;214140;1309;22620;-56
2021/12/19 23:32:06;;;;;;;1.90;0.80;;;21.70;58.80;;;;;;213951;1315;24134;-55
2021/12/19 23:37:27;;;;;;;2.40;1.10;;;21.70;58.70;;;;;;214162;1309;25546;-53
2021/12/19 23:47:47;;;;;;;6.40;1.00;;;21.70;58.90;;;;;;213919;1317;22561;-53
2021/12/19 23:52:51;;;;;;;4.10;1.20;;;21.90;58.30;;;;;;214063;1312;22558;-52
2021/12/19 23:57:55;;;;;;;2.60;1.10;;;22.20;57.80;;;;;;213640;1312;22626;-56
